Badan Meteorologi, Klimatologi, dan Geofisika

CUACA TERKINI BANDARA KUALANAMU

Rabu, 4 Agustus 2021 20:08 UTC

Cuaca : Berawan

Angin : (dari) Tenggara, 7.4 km/jam

Jarak Pandang : 6.0 km

Suhu : 26 °C

Waktu Pengamatan : 03:00 WIB

Selengkapnya>>>

DATA METEOROLOGI KUALANAMU

Data Metar Terbaru

WIMM 042000Z 15004KT 6000 SCT017 26/25 Q1010 NOSIG=

WIMM 041900Z 14004KT 6000 SCT017 26/25 Q1010 NOSIG=

WIMM 041830Z 15003KT 6000 SCT017 26/25 Q1010 NOSIG=

WIMM 041800Z 14002KT 8000 SCT017 26/25 Q1011 NOSIG=

TAF WIMM 041700Z 0418/0518 VRB05KT 5000 HZ SCT018 BECMG 0503/0505 04010KT 9999 NSW BECMG 0510/0512 VRB03KT 6000 =

Selengkapnya>>>

Data TAF Terbaru

TAF WIMM 041700Z 0418/0518 VRB05KT 5000 HZ SCT018 BECMG 0503/0505 04010KT 9999 NSW BECMG 0510/0512 VRB03KT 6000 =

Selengkapnya>>>

CITRA SATELIT

Enhanced
Citra Satelit
Cloud Type
Citra Satelit IR
Hotspot
Citra Satelit
Sebaran Asap
Citra Satelit